sensor_id;sensor_type;location;lat;lon;timestamp;temperature;humidity
10472;DHT22;5283;48.876;8.962;2023-05-07T00:00:56;9.00;99.90
10472;DHT22;5283;48.876;8.962;2023-05-07T00:03:23;9.00;99.90
10472;DHT22;5283;48.876;8.962;2023-05-07T00:05:50;9.00;99.90
10472;DHT22;5283;48.876;8.962;2023-05-07T00:08:16;9.00;99.90
10472;DHT22;5283;48.876;8.962;2023-05-07T00:10:43;9.00;99.90
10472;DHT22;5283;48.876;8.962;2023-05-07T00:13:10;9.10;99.90
10472;DHT22;5283;48.876;8.962;2023-05-07T00:15:37;9.20;99.90
10472;DHT22;5283;48.876;8.962;2023-05-07T00:18:03;9.20;99.90
10472;DHT22;5283;48.876;8.962;2023-05-07T00:20:30;9.10;99.90
10472;DHT22;5283;48.876;8.962;2023-05-07T00:22:57;9.10;99.90
10472;DHT22;5283;48.876;8.962;2023-05-07T00:25:23;9.00;99.90
10472;DHT22;5283;48.876;8.962;2023-05-07T00:27:50;9.00;99.90
10472;DHT22;5283;48.876;8.962;2023-05-07T00:30:17;8.90;99.90
10472;DHT22;5283;48.876;8.962;2023-05-07T00:32:43;9.00;99.90
10472;DHT22;5283;48.876;8.962;2023-05-07T00:35:12;8.90;99.90
10472;DHT22;5283;48.876;8.962;2023-05-07T00:37:39;8.90;99.90
10472;DHT22;5283;48.876;8.962;2023-05-07T00:40:06;8.80;99.90
10472;DHT22;5283;48.876;8.962;2023-05-07T00:42:34;8.80;99.90
10472;DHT22;5283;48.876;8.962;2023-05-07T00:45:00;8.80;99.90
10472;DHT22;5283;48.876;8.962;2023-05-07T00:47:27;8.80;99.90
10472;DHT22;5283;48.876;8.962;2023-05-07T00:49:54;8.70;99.90
10472;DHT22;5283;48.876;8.962;2023-05-07T00:52:22;8.70;99.90
10472;DHT22;5283;48.876;8.962;2023-05-07T00:54:51;8.60;99.90
10472;DHT22;5283;48.876;8.962;2023-05-07T00:57:19;8.60;99.90
10472;DHT22;5283;48.876;8.962;2023-05-07T00:59:47;8.70;99.90
10472;DHT22;5283;48.876;8.962;2023-05-07T01:02:14;8.70;99.90
10472;DHT22;5283;48.876;8.962;2023-05-07T01:04:41;8.60;99.90
10472;DHT22;5283;48.876;8.962;2023-05-07T01:07:08;8.60;99.90
10472;DHT22;5283;48.876;8.962;2023-05-07T01:09:35;8.60;99.90
10472;DHT22;5283;48.876;8.962;2023-05-07T01:12:03;8.50;99.90
10472;DHT22;5283;48.876;8.962;2023-05-07T01:14:30;8.50;99.90
10472;DHT22;5283;48.876;8.962;2023-05-07T01:16:59;8.50;99.90
10472;DHT22;5283;48.876;8.962;2023-05-07T01:19:26;8.50;99.90
10472;DHT22;5283;48.876;8.962;2023-05-07T01:22:01;8.40;99.90
10472;DHT22;5283;48.876;8.962;2023-05-07T01:24:29;8.40;99.90
10472;DHT22;5283;48.876;8.962;2023-05-07T01:26:56;8.30;99.90
10472;DHT22;5283;48.876;8.962;2023-05-07T01:29:23;8.40;99.90
10472;DHT22;5283;48.876;8.962;2023-05-07T01:31:50;8.40;99.90
10472;DHT22;5283;48.876;8.962;2023-05-07T01:34:18;8.40;99.90
10472;DHT22;5283;48.876;8.962;2023-05-07T01:36:48;8.40;99.90
10472;DHT22;5283;48.876;8.962;2023-05-07T01:39:15;8.40;99.90
10472;DHT22;5283;48.876;8.962;2023-05-07T01:41:43;8.40;99.90
10472;DHT22;5283;48.876;8.962;2023-05-07T01:44:12;8.50;99.90
10472;DHT22;5283;48.876;8.962;2023-05-07T01:46:40;8.50;99.90
10472;DHT22;5283;48.876;8.962;2023-05-07T01:49:06;8.60;99.90
10472;DHT22;5283;48.876;8.962;2023-05-07T01:51:33;8.70;99.90
10472;DHT22;5283;48.876;8.962;2023-05-07T01:54:00;8.70;99.90
10472;DHT22;5283;48.876;8.962;2023-05-07T01:56:27;8.80;99.90
10472;DHT22;5283;48.876;8.962;2023-05-07T01:58:54;8.90;99.90
10472;DHT22;5283;48.876;8.962;2023-05-07T02:01:21;8.80;99.90
10472;DHT22;5283;48.876;8.962;2023-05-07T02:03:47;8.90;99.90
10472;DHT22;5283;48.876;8.962;2023-05-07T02:06:14;8.90;99.90
10472;DHT22;5283;48.876;8.962;2023-05-07T02:08:41;8.90;99.90
10472;DHT22;5283;48.876;8.962;2023-05-07T02:11:07;8.90;99.90
10472;DHT22;5283;48.876;8.962;2023-05-07T02:13:34;8.90;99.90
10472;DHT22;5283;48.876;8.962;2023-05-07T02:16:02;9.00;99.90
10472;DHT22;5283;48.876;8.962;2023-05-07T02:18:29;9.00;99.90
10472;DHT22;5283;48.876;8.962;2023-05-07T02:20:55;9.00;99.90
10472;DHT22;5283;48.876;8.962;2023-05-07T02:23:22;9.00;99.90
10472;DHT22;5283;48.876;8.962;2023-05-07T02:25:49;9.10;99.90
10472;DHT22;5283;48.876;8.962;2023-05-07T02:28:15;9.00;99.90
10472;DHT22;5283;48.876;8.962;2023-05-07T02:30:42;8.90;99.90
10472;DHT22;5283;48.876;8.962;2023-05-07T02:33:09;8.90;99.90
10472;DHT22;5283;48.876;8.962;2023-05-07T02:35:36;8.90;99.90
10472;DHT22;5283;48.876;8.962;2023-05-07T02:38:02;8.80;99.90
10472;DHT22;5283;48.876;8.962;2023-05-07T02:40:29;8.70;99.90
10472;DHT22;5283;48.876;8.962;2023-05-07T02:42:56;8.60;99.90
10472;DHT22;5283;48.876;8.962;2023-05-07T02:45:22;8.60;99.90
10472;DHT22;5283;48.876;8.962;2023-05-07T02:47:49;8.50;99.90
10472;DHT22;5283;48.876;8.962;2023-05-07T02:50:16;8.40;99.90
10472;DHT22;5283;48.876;8.962;2023-05-07T02:52:43;8.30;99.90
10472;DHT22;5283;48.876;8.962;2023-05-07T02:55:09;8.30;99.90
10472;DHT22;5283;48.876;8.962;2023-05-07T02:57:36;8.40;99.90
10472;DHT22;5283;48.876;8.962;2023-05-07T03:00:14;8.30;99.90
10472;DHT22;5283;48.876;8.962;2023-05-07T03:02:41;8.20;99.90
10472;DHT22;5283;48.876;8.962;2023-05-07T03:05:07;8.30;99.90
10472;DHT22;5283;48.876;8.962;2023-05-07T03:07:35;8.30;99.90
10472;DHT22;5283;48.876;8.962;2023-05-07T03:10:03;8.30;99.90
10472;DHT22;5283;48.876;8.962;2023-05-07T03:12:30;8.20;99.90
10472;DHT22;5283;48.876;8.962;2023-05-07T03:14:57;8.20;99.90
10472;DHT22;5283;48.876;8.962;2023-05-07T03:17:24;8.20;99.90
10472;DHT22;5283;48.876;8.962;2023-05-07T03:19:51;8.20;99.90
10472;DHT22;5283;48.876;8.962;2023-05-07T03:22:17;8.20;99.90
10472;DHT22;5283;48.876;8.962;2023-05-07T03:24:44;8.30;99.90
10472;DHT22;5283;48.876;8.962;2023-05-07T03:27:10;8.20;99.90
10472;DHT22;5283;48.876;8.962;2023-05-07T03:29:37;8.10;99.90
10472;DHT22;5283;48.876;8.962;2023-05-07T03:32:04;8.20;99.90
10472;DHT22;5283;48.876;8.962;2023-05-07T03:34:32;8.20;99.90
10472;DHT22;5283;48.876;8.962;2023-05-07T03:36:58;8.20;99.90
10472;DHT22;5283;48.876;8.962;2023-05-07T03:39:25;8.10;99.90
10472;DHT22;5283;48.876;8.962;2023-05-07T03:41:52;8.10;99.90
10472;DHT22;5283;48.876;8.962;2023-05-07T03:44:19;8.10;99.90
10472;DHT22;5283;48.876;8.962;2023-05-07T03:46:46;8.10;99.90
10472;DHT22;5283;48.876;8.962;2023-05-07T03:49:13;8.00;99.90
10472;DHT22;5283;48.876;8.962;2023-05-07T03:51:39;8.00;99.90
10472;DHT22;5283;48.876;8.962;2023-05-07T03:54:06;8.10;99.90
10472;DHT22;5283;48.876;8.962;2023-05-07T03:56:33;8.10;99.90
10472;DHT22;5283;48.876;8.962;2023-05-07T03:59:00;8.10;99.90
10472;DHT22;5283;48.876;8.962;2023-05-07T04:01:28;8.10;99.90
10472;DHT22;5283;48.876;8.962;2023-05-07T04:03:55;8.10;99.90
10472;DHT22;5283;48.876;8.962;2023-05-07T04:06:21;8.20;99.90
10472;DHT22;5283;48.876;8.962;2023-05-07T04:08:48;8.30;99.90
10472;DHT22;5283;48.876;8.962;2023-05-07T04:11:15;8.40;99.90
10472;DHT22;5283;48.876;8.962;2023-05-07T04:13:41;8.40;99.90
10472;DHT22;5283;48.876;8.962;2023-05-07T04:16:08;8.40;99.90
10472;DHT22;5283;48.876;8.962;2023-05-07T04:18:35;8.50;99.90
10472;DHT22;5283;48.876;8.962;2023-05-07T04:21:02;8.50;99.90
10472;DHT22;5283;48.876;8.962;2023-05-07T04:23:28;8.50;99.90
10472;DHT22;5283;48.876;8.962;2023-05-07T04:25:55;8.60;99.90
10472;DHT22;5283;48.876;8.962;2023-05-07T04:28:23;8.70;99.90
10472;DHT22;5283;48.876;8.962;2023-05-07T04:30:50;8.70;99.90
10472;DHT22;5283;48.876;8.962;2023-05-07T04:33:17;8.90;99.90
10472;DHT22;5283;48.876;8.962;2023-05-07T04:35:44;9.00;99.90
10472;DHT22;5283;48.876;8.962;2023-05-07T04:38:10;9.10;99.90
10472;DHT22;5283;48.876;8.962;2023-05-07T04:40:37;9.30;99.90
10472;DHT22;5283;48.876;8.962;2023-05-07T04:43:05;9.40;99.90
10472;DHT22;5283;48.876;8.962;2023-05-07T04:45:32;9.50;99.90
10472;DHT22;5283;48.876;8.962;2023-05-07T04:47:58;9.80;99.90
10472;DHT22;5283;48.876;8.962;2023-05-07T04:50:25;10.40;99.90
10472;DHT22;5283;48.876;8.962;2023-05-07T04:52:53;11.20;99.90
10472;DHT22;5283;48.876;8.962;2023-05-07T04:55:19;11.80;99.90
10472;DHT22;5283;48.876;8.962;2023-05-07T04:57:46;12.50;99.90
10472;DHT22;5283;48.876;8.962;2023-05-07T05:00:13;12.60;99.90
10472;DHT22;5283;48.876;8.962;2023-05-07T05:02:41;12.30;99.90
10472;DHT22;5283;48.876;8.962;2023-05-07T05:05:08;11.90;99.90
10472;DHT22;5283;48.876;8.962;2023-05-07T05:07:34;11.60;99.90
10472;DHT22;5283;48.876;8.962;2023-05-07T05:10:02;11.50;99.90
10472;DHT22;5283;48.876;8.962;2023-05-07T05:12:29;11.60;99.90
10472;DHT22;5283;48.876;8.962;2023-05-07T05:14:56;11.70;99.90
10472;DHT22;5283;48.876;8.962;2023-05-07T05:17:23;11.80;99.90
10472;DHT22;5283;48.876;8.962;2023-05-07T05:19:50;11.80;99.90
10472;DHT22;5283;48.876;8.962;2023-05-07T05:22:17;11.90;99.90
10472;DHT22;5283;48.876;8.962;2023-05-07T05:24:43;12.00;99.90
10472;DHT22;5283;48.876;8.962;2023-05-07T05:27:10;12.60;99.90
10472;DHT22;5283;48.876;8.962;2023-05-07T05:29:37;13.50;99.90
10472;DHT22;5283;48.876;8.962;2023-05-07T05:32:03;14.50;99.90
10472;DHT22;5283;48.876;8.962;2023-05-07T05:34:30;14.80;99.90
10472;DHT22;5283;48.876;8.962;2023-05-07T05:36:58;15.00;99.90
10472;DHT22;5283;48.876;8.962;2023-05-07T05:39:25;15.20;99.90
10472;DHT22;5283;48.876;8.962;2023-05-07T05:41:52;15.30;99.90
10472;DHT22;5283;48.876;8.962;2023-05-07T05:44:18;15.60;99.90
10472;DHT22;5283;48.876;8.962;2023-05-07T05:46:45;15.70;99.90
10472;DHT22;5283;48.876;8.962;2023-05-07T05:49:12;15.80;99.90
10472;DHT22;5283;48.876;8.962;2023-05-07T05:51:39;15.70;99.90
10472;DHT22;5283;48.876;8.962;2023-05-07T05:54:06;15.60;99.90
10472;DHT22;5283;48.876;8.962;2023-05-07T05:56:32;15.50;99.90
10472;DHT22;5283;48.876;8.962;2023-05-07T05:58:59;15.70;99.90
10472;DHT22;5283;48.876;8.962;2023-05-07T06:01:26;16.10;99.90
10472;DHT22;5283;48.876;8.962;2023-05-07T06:03:53;16.00;99.90
10472;DHT22;5283;48.876;8.962;2023-05-07T06:06:19;15.80;99.90
10472;DHT22;5283;48.876;8.962;2023-05-07T06:08:46;16.50;99.90
10472;DHT22;5283;48.876;8.962;2023-05-07T06:11:13;17.60;99.90
10472;DHT22;5283;48.876;8.962;2023-05-07T06:13:40;18.70;99.90
10472;DHT22;5283;48.876;8.962;2023-05-07T06:16:06;19.60;99.90
10472;DHT22;5283;48.876;8.962;2023-05-07T06:18:33;20.10;99.90
10472;DHT22;5283;48.876;8.962;2023-05-07T06:21:02;20.10;99.90
10472;DHT22;5283;48.876;8.962;2023-05-07T06:23:29;19.90;99.90
10472;DHT22;5283;48.876;8.962;2023-05-07T06:25:55;19.80;99.90
10472;DHT22;5283;48.876;8.962;2023-05-07T06:28:22;19.80;99.90
10472;DHT22;5283;48.876;8.962;2023-05-07T06:30:49;19.70;99.90
10472;DHT22;5283;48.876;8.962;2023-05-07T06:33:16;19.60;99.90
10472;DHT22;5283;48.876;8.962;2023-05-07T06:35:43;19.60;99.90
10472;DHT22;5283;48.876;8.962;2023-05-07T06:38:09;20.10;99.90
10472;DHT22;5283;48.876;8.962;2023-05-07T06:40:37;20.80;99.90
10472;DHT22;5283;48.876;8.962;2023-05-07T06:43:03;21.40;99.90
10472;DHT22;5283;48.876;8.962;2023-05-07T06:45:30;21.90;99.90
10472;DHT22;5283;48.876;8.962;2023-05-07T06:47:57;22.50;99.90
10472;DHT22;5283;48.876;8.962;2023-05-07T06:50:24;22.80;99.90
10472;DHT22;5283;48.876;8.962;2023-05-07T06:52:50;23.00;99.90
10472;DHT22;5283;48.876;8.962;2023-05-07T06:55:17;23.20;99.90
10472;DHT22;5283;48.876;8.962;2023-05-07T06:57:45;23.20;99.90
10472;DHT22;5283;48.876;8.962;2023-05-07T07:00:12;23.60;99.90
10472;DHT22;5283;48.876;8.962;2023-05-07T07:02:39;23.90;99.90
10472;DHT22;5283;48.876;8.962;2023-05-07T07:05:06;24.00;99.90
10472;DHT22;5283;48.876;8.962;2023-05-07T07:07:33;24.20;99.90
10472;DHT22;5283;48.876;8.962;2023-05-07T07:10:00;24.30;99.90
10472;DHT22;5283;48.876;8.962;2023-05-07T07:12:27;24.50;99.90
10472;DHT22;5283;48.876;8.962;2023-05-07T07:14:55;24.60;99.90
10472;DHT22;5283;48.876;8.962;2023-05-07T07:17:22;24.60;99.90
10472;DHT22;5283;48.876;8.962;2023-05-07T07:19:48;24.70;99.90
10472;DHT22;5283;48.876;8.962;2023-05-07T07:22:15;24.80;99.90
10472;DHT22;5283;48.876;8.962;2023-05-07T07:24:42;24.70;99.90
10472;DHT22;5283;48.876;8.962;2023-05-07T07:27:08;25.40;99.90
10472;DHT22;5283;48.876;8.962;2023-05-07T07:29:35;25.90;99.90
10472;DHT22;5283;48.876;8.962;2023-05-07T07:32:02;26.40;99.90
10472;DHT22;5283;48.876;8.962;2023-05-07T07:34:28;26.90;99.90
10472;DHT22;5283;48.876;8.962;2023-05-07T07:36:55;26.90;99.90
10472;DHT22;5283;48.876;8.962;2023-05-07T07:39:22;26.70;99.90
10472;DHT22;5283;48.876;8.962;2023-05-07T07:41:49;25.90;99.90
10472;DHT22;5283;48.876;8.962;2023-05-07T07:44:15;25.00;99.90
10472;DHT22;5283;48.876;8.962;2023-05-07T07:46:42;24.40;99.90
10472;DHT22;5283;48.876;8.962;2023-05-07T07:49:09;23.80;99.90
10472;DHT22;5283;48.876;8.962;2023-05-07T07:51:35;23.20;99.90
10472;DHT22;5283;48.876;8.962;2023-05-07T07:54:03;22.70;99.90
10472;DHT22;5283;48.876;8.962;2023-05-07T07:56:29;22.30;99.90
10472;DHT22;5283;48.876;8.962;2023-05-07T07:58:56;22.10;99.90
10472;DHT22;5283;48.876;8.962;2023-05-07T08:01:23;21.90;99.90
10472;DHT22;5283;48.876;8.962;2023-05-07T08:03:49;21.60;99.90
10472;DHT22;5283;48.876;8.962;2023-05-07T08:06:16;21.40;99.90
10472;DHT22;5283;48.876;8.962;2023-05-07T08:08:43;21.40;99.90
10472;DHT22;5283;48.876;8.962;2023-05-07T08:11:10;21.40;99.90
10472;DHT22;5283;48.876;8.962;2023-05-07T08:13:37;21.30;99.90
10472;DHT22;5283;48.876;8.962;2023-05-07T08:16:05;21.20;99.90
10472;DHT22;5283;48.876;8.962;2023-05-07T08:18:31;21.10;99.90
10472;DHT22;5283;48.876;8.962;2023-05-07T08:20:58;21.10;99.90
10472;DHT22;5283;48.876;8.962;2023-05-07T08:23:25;21.00;99.90
10472;DHT22;5283;48.876;8.962;2023-05-07T08:25:53;21.00;99.90
10472;DHT22;5283;48.876;8.962;2023-05-07T08:28:19;20.90;99.90
10472;DHT22;5283;48.876;8.962;2023-05-07T08:30:47;20.90;99.90
10472;DHT22;5283;48.876;8.962;2023-05-07T08:33:14;21.00;99.90
10472;DHT22;5283;48.876;8.962;2023-05-07T08:35:41;21.00;99.90
10472;DHT22;5283;48.876;8.962;2023-05-07T08:38:08;21.20;99.90
10472;DHT22;5283;48.876;8.962;2023-05-07T08:40:37;21.60;99.90
10472;DHT22;5283;48.876;8.962;2023-05-07T08:43:07;22.00;99.90
10472;DHT22;5283;48.876;8.962;2023-05-07T08:45:34;22.50;99.90
10472;DHT22;5283;48.876;8.962;2023-05-07T08:48:03;22.80;99.90
10472;DHT22;5283;48.876;8.962;2023-05-07T08:50:31;22.80;99.90
10472;DHT22;5283;48.876;8.962;2023-05-07T08:52:59;22.90;99.90
10472;DHT22;5283;48.876;8.962;2023-05-07T08:55:28;23.00;99.90
10472;DHT22;5283;48.876;8.962;2023-05-07T08:57:55;23.10;99.90
10472;DHT22;5283;48.876;8.962;2023-05-07T09:00:22;23.10;99.90
10472;DHT22;5283;48.876;8.962;2023-05-07T09:02:49;23.20;99.90
10472;DHT22;5283;48.876;8.962;2023-05-07T09:05:15;23.30;99.90
10472;DHT22;5283;48.876;8.962;2023-05-07T09:07:42;23.30;99.90
10472;DHT22;5283;48.876;8.962;2023-05-07T09:10:09;23.40;99.90
10472;DHT22;5283;48.876;8.962;2023-05-07T09:12:36;23.30;99.90
10472;DHT22;5283;48.876;8.962;2023-05-07T09:15:03;23.30;99.90
10472;DHT22;5283;48.876;8.962;2023-05-07T09:17:29;23.10;99.90
10472;DHT22;5283;48.876;8.962;2023-05-07T09:19:56;22.90;99.90
10472;DHT22;5283;48.876;8.962;2023-05-07T09:22:23;22.70;99.90
10472;DHT22;5283;48.876;8.962;2023-05-07T09:24:50;22.40;99.90
10472;DHT22;5283;48.876;8.962;2023-05-07T09:27:17;22.10;99.90
10472;DHT22;5283;48.876;8.962;2023-05-07T09:29:45;22.10;99.90
10472;DHT22;5283;48.876;8.962;2023-05-07T09:32:11;22.00;99.90
10472;DHT22;5283;48.876;8.962;2023-05-07T09:34:38;22.10;99.90
10472;DHT22;5283;48.876;8.962;2023-05-07T09:37:06;21.90;99.90
10472;DHT22;5283;48.876;8.962;2023-05-07T09:39:46;21.90;99.90
10472;DHT22;5283;48.876;8.962;2023-05-07T09:42:13;22.00;99.90
10472;DHT22;5283;48.876;8.962;2023-05-07T09:44:44;22.00;99.90
10472;DHT22;5283;48.876;8.962;2023-05-07T09:47:11;22.10;99.90
10472;DHT22;5283;48.876;8.962;2023-05-07T09:49:47;21.90;99.90
10472;DHT22;5283;48.876;8.962;2023-05-07T09:52:14;22.10;99.90
10472;DHT22;5283;48.876;8.962;2023-05-07T09:54:41;22.20;99.90
10472;DHT22;5283;48.876;8.962;2023-05-07T09:57:14;22.20;99.90
10472;DHT22;5283;48.876;8.962;2023-05-07T09:59:42;22.20;99.90
10472;DHT22;5283;48.876;8.962;2023-05-07T10:02:10;22.20;99.90
10472;DHT22;5283;48.876;8.962;2023-05-07T10:04:37;22.20;99.90
10472;DHT22;5283;48.876;8.962;2023-05-07T10:07:04;22.20;99.90
10472;DHT22;5283;48.876;8.962;2023-05-07T10:09:32;22.30;99.90
10472;DHT22;5283;48.876;8.962;2023-05-07T10:11:59;22.40;99.90
10472;DHT22;5283;48.876;8.962;2023-05-07T10:14:27;22.40;99.90
10472;DHT22;5283;48.876;8.962;2023-05-07T10:16:54;22.30;99.90
10472;DHT22;5283;48.876;8.962;2023-05-07T10:19:22;22.40;99.90
10472;DHT22;5283;48.876;8.962;2023-05-07T10:21:55;22.30;99.90
10472;DHT22;5283;48.876;8.962;2023-05-07T10:24:29;22.40;99.90
10472;DHT22;5283;48.876;8.962;2023-05-07T10:26:59;22.40;99.90
10472;DHT22;5283;48.876;8.962;2023-05-07T10:34:56;22.40;99.90
10472;DHT22;5283;48.876;8.962;2023-05-07T10:37:25;22.40;99.90
10472;DHT22;5283;48.876;8.962;2023-05-07T10:39:52;22.60;99.90
10472;DHT22;5283;48.876;8.962;2023-05-07T10:42:19;22.80;99.90
10472;DHT22;5283;48.876;8.962;2023-05-07T10:44:45;22.90;99.90
10472;DHT22;5283;48.876;8.962;2023-05-07T10:47:14;23.00;99.90
10472;DHT22;5283;48.876;8.962;2023-05-07T10:52:21;22.90;99.90
10472;DHT22;5283;48.876;8.962;2023-05-07T10:57:43;22.70;99.90
10472;DHT22;5283;48.876;8.962;2023-05-07T11:05:29;22.20;99.90
10472;DHT22;5283;48.876;8.962;2023-05-07T11:08:00;22.10;99.90
10472;DHT22;5283;48.876;8.962;2023-05-07T11:13:14;22.10;99.90
10472;DHT22;5283;48.876;8.962;2023-05-07T11:15:43;22.10;99.90
10472;DHT22;5283;48.876;8.962;2023-05-07T11:18:15;22.10;99.90
10472;DHT22;5283;48.876;8.962;2023-05-07T11:20:52;22.20;99.90
10472;DHT22;5283;48.876;8.962;2023-05-07T11:28:31;22.30;99.90
10472;DHT22;5283;48.876;8.962;2023-05-07T11:30:59;22.50;99.90
10472;DHT22;5283;48.876;8.962;2023-05-07T11:33:26;22.60;99.90
10472;DHT22;5283;48.876;8.962;2023-05-07T11:35:53;22.70;99.90
10472;DHT22;5283;48.876;8.962;2023-05-07T11:38:20;22.90;99.90
10472;DHT22;5283;48.876;8.962;2023-05-07T11:40:51;22.80;99.90
10472;DHT22;5283;48.876;8.962;2023-05-07T11:43:18;22.80;99.90
10472;DHT22;5283;48.876;8.962;2023-05-07T11:45:46;22.90;99.90
10472;DHT22;5283;48.876;8.962;2023-05-07T11:48:14;22.80;99.90
10472;DHT22;5283;48.876;8.962;2023-05-07T11:51:03;22.60;99.90
10472;DHT22;5283;48.876;8.962;2023-05-07T11:53:38;22.60;99.90
10472;DHT22;5283;48.876;8.962;2023-05-07T11:56:16;22.90;99.90
10472;DHT22;5283;48.876;8.962;2023-05-07T11:58:45;23.10;99.90
10472;DHT22;5283;48.876;8.962;2023-05-07T12:01:12;23.10;99.90
10472;DHT22;5283;48.876;8.962;2023-05-07T12:03:41;23.60;99.90
10472;DHT22;5283;48.876;8.962;2023-05-07T12:06:17;23.90;99.90
10472;DHT22;5283;48.876;8.962;2023-05-07T12:08:45;24.30;99.90
10472;DHT22;5283;48.876;8.962;2023-05-07T12:11:16;24.60;99.90
10472;DHT22;5283;48.876;8.962;2023-05-07T12:13:48;24.70;99.90
10472;DHT22;5283;48.876;8.962;2023-05-07T12:16:14;24.80;99.90
10472;DHT22;5283;48.876;8.962;2023-05-07T12:18:41;24.90;99.90
10472;DHT22;5283;48.876;8.962;2023-05-07T12:21:09;24.80;99.90
10472;DHT22;5283;48.876;8.962;2023-05-07T12:23:44;24.60;99.90
10472;DHT22;5283;48.876;8.962;2023-05-07T12:26:18;24.60;99.90
10472;DHT22;5283;48.876;8.962;2023-05-07T12:28:51;24.60;99.90
10472;DHT22;5283;48.876;8.962;2023-05-07T12:31:42;24.80;99.90
10472;DHT22;5283;48.876;8.962;2023-05-07T12:34:15;24.90;99.90
10472;DHT22;5283;48.876;8.962;2023-05-07T12:37:03;25.00;99.90
10472;DHT22;5283;48.876;8.962;2023-05-07T12:39:31;25.10;99.90
10472;DHT22;5283;48.876;8.962;2023-05-07T12:42:03;24.90;99.90
10472;DHT22;5283;48.876;8.962;2023-05-07T12:44:40;24.90;99.90
10472;DHT22;5283;48.876;8.962;2023-05-07T12:47:36;24.90;99.90
10472;DHT22;5283;48.876;8.962;2023-05-07T12:50:23;25.00;99.90
10472;DHT22;5283;48.876;8.962;2023-05-07T12:56:41;24.70;99.90
10472;DHT22;5283;48.876;8.962;2023-05-07T12:59:08;24.50;99.90
10472;DHT22;5283;48.876;8.962;2023-05-07T13:01:35;24.40;99.90
10472;DHT22;5283;48.876;8.962;2023-05-07T13:04:03;24.00;99.90
10472;DHT22;5283;48.876;8.962;2023-05-07T13:06:30;23.70;99.90
10472;DHT22;5283;48.876;8.962;2023-05-07T13:08:58;23.30;99.90
10472;DHT22;5283;48.876;8.962;2023-05-07T13:11:24;23.10;99.90
10472;DHT22;5283;48.876;8.962;2023-05-07T13:13:51;22.70;99.90
10472;DHT22;5283;48.876;8.962;2023-05-07T13:16:18;22.30;99.90
10472;DHT22;5283;48.876;8.962;2023-05-07T13:18:47;21.90;99.90
10472;DHT22;5283;48.876;8.962;2023-05-07T13:21:14;21.40;99.90
10472;DHT22;5283;48.876;8.962;2023-05-07T13:23:41;20.70;99.90
10472;DHT22;5283;48.876;8.962;2023-05-07T13:26:07;20.00;99.90
10472;DHT22;5283;48.876;8.962;2023-05-07T13:28:40;19.50;99.90
10472;DHT22;5283;48.876;8.962;2023-05-07T13:31:07;19.10;99.90
10472;DHT22;5283;48.876;8.962;2023-05-07T13:33:33;18.90;99.90
10472;DHT22;5283;48.876;8.962;2023-05-07T13:36:00;18.70;99.90
10472;DHT22;5283;48.876;8.962;2023-05-07T13:38:27;18.60;99.90
10472;DHT22;5283;48.876;8.962;2023-05-07T13:40:54;18.50;99.90
10472;DHT22;5283;48.876;8.962;2023-05-07T13:43:20;18.30;99.90
10472;DHT22;5283;48.876;8.962;2023-05-07T13:45:48;18.20;99.90
10472;DHT22;5283;48.876;8.962;2023-05-07T13:48:15;18.20;99.90
10472;DHT22;5283;48.876;8.962;2023-05-07T13:50:41;18.20;99.90
10472;DHT22;5283;48.876;8.962;2023-05-07T13:53:08;18.10;99.90
10472;DHT22;5283;48.876;8.962;2023-05-07T13:55:35;18.00;99.90
10472;DHT22;5283;48.876;8.962;2023-05-07T13:58:02;18.00;99.90
10472;DHT22;5283;48.876;8.962;2023-05-07T14:00:32;17.90;99.90
10472;DHT22;5283;48.876;8.962;2023-05-07T14:02:58;17.80;99.90
10472;DHT22;5283;48.876;8.962;2023-05-07T14:05:25;17.60;99.90
10472;DHT22;5283;48.876;8.962;2023-05-07T14:07:55;17.50;99.90
10472;DHT22;5283;48.876;8.962;2023-05-07T14:10:23;17.40;99.90
10472;DHT22;5283;48.876;8.962;2023-05-07T14:12:49;17.30;99.90
10472;DHT22;5283;48.876;8.962;2023-05-07T14:15:16;17.20;99.90
10472;DHT22;5283;48.876;8.962;2023-05-07T14:17:43;17.00;99.90
10472;DHT22;5283;48.876;8.962;2023-05-07T14:20:11;17.00;99.90
10472;DHT22;5283;48.876;8.962;2023-05-07T14:22:38;16.90;99.90
10472;DHT22;5283;48.876;8.962;2023-05-07T14:25:06;16.80;99.90
10472;DHT22;5283;48.876;8.962;2023-05-07T14:27:33;16.70;99.90
10472;DHT22;5283;48.876;8.962;2023-05-07T14:29:59;16.60;99.90
10472;DHT22;5283;48.876;8.962;2023-05-07T14:32:26;16.40;99.90
10472;DHT22;5283;48.876;8.962;2023-05-07T14:34:53;16.30;99.90
10472;DHT22;5283;48.876;8.962;2023-05-07T14:37:20;16.20;99.90
10472;DHT22;5283;48.876;8.962;2023-05-07T14:39:46;16.00;99.90
10472;DHT22;5283;48.876;8.962;2023-05-07T14:42:16;15.90;99.90
10472;DHT22;5283;48.876;8.962;2023-05-07T14:44:43;15.80;99.90
10472;DHT22;5283;48.876;8.962;2023-05-07T14:47:11;15.70;99.90
10472;DHT22;5283;48.876;8.962;2023-05-07T14:49:38;15.70;99.90
10472;DHT22;5283;48.876;8.962;2023-05-07T14:52:05;15.60;99.90
10472;DHT22;5283;48.876;8.962;2023-05-07T14:54:34;15.60;99.90
10472;DHT22;5283;48.876;8.962;2023-05-07T14:57:04;15.50;99.90
10472;DHT22;5283;48.876;8.962;2023-05-07T14:59:32;15.60;99.90
10472;DHT22;5283;48.876;8.962;2023-05-07T15:01:58;15.50;99.90
10472;DHT22;5283;48.876;8.962;2023-05-07T15:04:25;15.50;99.90
10472;DHT22;5283;48.876;8.962;2023-05-07T15:06:52;15.50;99.90
10472;DHT22;5283;48.876;8.962;2023-05-07T15:09:20;15.50;99.90
10472;DHT22;5283;48.876;8.962;2023-05-07T15:11:46;15.40;99.90
10472;DHT22;5283;48.876;8.962;2023-05-07T15:14:13;15.50;99.90
10472;DHT22;5283;48.876;8.962;2023-05-07T15:16:40;15.40;99.90
10472;DHT22;5283;48.876;8.962;2023-05-07T15:19:07;15.40;99.90
10472;DHT22;5283;48.876;8.962;2023-05-07T15:21:33;15.40;99.90
10472;DHT22;5283;48.876;8.962;2023-05-07T15:24:01;15.60;99.90
10472;DHT22;5283;48.876;8.962;2023-05-07T15:26:28;15.80;99.90
10472;DHT22;5283;48.876;8.962;2023-05-07T15:28:55;16.00;99.90
10472;DHT22;5283;48.876;8.962;2023-05-07T15:31:24;16.10;99.90
10472;DHT22;5283;48.876;8.962;2023-05-07T15:33:51;16.20;99.90
10472;DHT22;5283;48.876;8.962;2023-05-07T15:36:20;16.30;99.90
10472;DHT22;5283;48.876;8.962;2023-05-07T15:38:46;16.40;99.90
10472;DHT22;5283;48.876;8.962;2023-05-07T15:41:13;16.60;99.90
10472;DHT22;5283;48.876;8.962;2023-05-07T15:43:45;16.70;99.90
10472;DHT22;5283;48.876;8.962;2023-05-07T15:46:13;16.70;99.90
10472;DHT22;5283;48.876;8.962;2023-05-07T15:48:43;16.50;99.90
10472;DHT22;5283;48.876;8.962;2023-05-07T15:51:10;16.50;99.90
10472;DHT22;5283;48.876;8.962;2023-05-07T15:53:37;16.50;99.90
10472;DHT22;5283;48.876;8.962;2023-05-07T15:56:04;16.60;99.90
10472;DHT22;5283;48.876;8.962;2023-05-07T15:58:30;16.70;99.90
10472;DHT22;5283;48.876;8.962;2023-05-07T16:00:58;16.80;99.90
10472;DHT22;5283;48.876;8.962;2023-05-07T16:03:26;16.80;99.90
10472;DHT22;5283;48.876;8.962;2023-05-07T16:05:54;16.90;99.90
10472;DHT22;5283;48.876;8.962;2023-05-07T16:08:26;16.90;99.90
10472;DHT22;5283;48.876;8.962;2023-05-07T16:10:53;17.10;99.90
10472;DHT22;5283;48.876;8.962;2023-05-07T16:13:20;17.30;99.90
10472;DHT22;5283;48.876;8.962;2023-05-07T16:15:47;17.30;99.90
10472;DHT22;5283;48.876;8.962;2023-05-07T16:18:13;17.40;99.90
10472;DHT22;5283;48.876;8.962;2023-05-07T16:20:43;17.50;99.90